sensor_id;sensor_type;location;lat;lon;timestamp;pressure;altitude;pressure_sealevel;temperature;humidity
72336;BME280;65062;48.446;8.834;2023-04-29T00:01:55;97259.63;;;10.20;96.83
72336;BME280;65062;48.446;8.834;2023-04-29T00:04:58;97257.69;;;10.07;96.79
72336;BME280;65062;48.446;8.834;2023-04-29T00:07:58;97261.75;;;10.10;97.89
72336;BME280;65062;48.446;8.834;2023-04-29T00:10:58;97247.03;;;10.09;98.21
72336;BME280;65062;48.446;8.834;2023-04-29T00:13:59;97251.47;;;10.08;97.76
72336;BME280;65062;48.446;8.834;2023-04-29T00:17:00;97250.66;;;10.08;98.63
72336;BME280;65062;48.446;8.834;2023-04-29T00:20:01;97249.97;;;10.20;98.05
72336;BME280;65062;48.446;8.834;2023-04-29T00:23:01;97249.97;;;10.20;98.10
72336;BME280;65062;48.446;8.834;2023-04-29T00:26:02;97245.53;;;10.21;98.98
72336;BME280;65062;48.446;8.834;2023-04-29T00:29:02;97250.19;;;10.25;98.47
72336;BME280;65062;48.446;8.834;2023-04-29T00:32:03;97248.78;;;10.23;98.73
72336;BME280;65062;48.446;8.834;2023-04-29T00:35:04;97248.97;;;10.21;98.55
72336;BME280;65062;48.446;8.834;2023-04-29T00:38:04;97245.22;;;10.30;98.52
72336;BME280;65062;48.446;8.834;2023-04-29T00:41:05;97257.84;;;10.27;97.53
72336;BME280;65062;48.446;8.834;2023-04-29T00:44:05;97252.59;;;10.20;98.50
72336;BME280;65062;48.446;8.834;2023-04-29T00:47:06;97246.97;;;10.23;97.67
72336;BME280;65062;48.446;8.834;2023-04-29T00:50:10;97251.78;;;10.20;97.76
72336;BME280;65062;48.446;8.834;2023-04-29T00:53:10;97254.94;;;10.15;97.74
72336;BME280;65062;48.446;8.834;2023-04-29T00:56:12;97251.41;;;10.23;97.77
72336;BME280;65062;48.446;8.834;2023-04-29T00:59:14;97257.44;;;10.23;98.75
72336;BME280;65062;48.446;8.834;2023-04-29T01:02:16;97258.78;;;10.19;98.76
72336;BME280;65062;48.446;8.834;2023-04-29T01:05:18;97247.94;;;10.16;98.14
72336;BME280;65062;48.446;8.834;2023-04-29T01:08:34;97257.00;;;10.20;98.21
72336;BME280;65062;48.446;8.834;2023-04-29T01:11:54;97248.91;;;10.15;97.88
72336;BME280;65062;48.446;8.834;2023-04-29T01:15:11;97252.97;;;10.17;98.09
72336;BME280;65062;48.446;8.834;2023-04-29T01:18:19;97257.56;;;10.15;97.97
72336;BME280;65062;48.446;8.834;2023-04-29T01:21:23;97255.31;;;10.12;97.82
72336;BME280;65062;48.446;8.834;2023-04-29T01:24:24;97248.69;;;10.10;98.74
72336;BME280;65062;48.446;8.834;2023-04-29T01:27:32;97252.72;;;10.12;98.15
72336;BME280;65062;48.446;8.834;2023-04-29T01:30:53;97248.50;;;10.11;98.40
72336;BME280;65062;48.446;8.834;2023-04-29T01:40:47;97248.72;;;10.16;97.73
72336;BME280;65062;48.446;8.834;2023-04-29T01:43:50;97244.69;;;10.14;97.95
72336;BME280;65062;48.446;8.834;2023-04-29T01:46:52;97242.13;;;10.20;97.68
72336;BME280;65062;48.446;8.834;2023-04-29T01:49:53;97243.28;;;10.18;98.12
72336;BME280;65062;48.446;8.834;2023-04-29T01:52:53;97237.94;;;10.26;98.16
72336;BME280;65062;48.446;8.834;2023-04-29T01:55:53;97241.00;;;10.08;97.16
72336;BME280;65062;48.446;8.834;2023-04-29T01:58:54;97249.47;;;10.10;97.43
72336;BME280;65062;48.446;8.834;2023-04-29T02:01:54;97248.69;;;10.10;97.52
72336;BME280;65062;48.446;8.834;2023-04-29T02:04:56;97242.34;;;10.04;97.85
72336;BME280;65062;48.446;8.834;2023-04-29T02:07:56;97250.41;;;10.03;98.31
72336;BME280;65062;48.446;8.834;2023-04-29T02:10:58;97248.34;;;9.98;98.67
72336;BME280;65062;48.446;8.834;2023-04-29T02:13:59;97249.47;;;10.10;98.13
72336;BME280;65062;48.446;8.834;2023-04-29T02:16:59;97252.19;;;10.02;98.12
72336;BME280;65062;48.446;8.834;2023-04-29T02:19:59;97247.16;;;10.01;97.80
72336;BME280;65062;48.446;8.834;2023-04-29T02:23:00;97246.50;;;9.99;98.20
72336;BME280;65062;48.446;8.834;2023-04-29T02:26:00;97251.31;;;9.95;98.12
72336;BME280;65062;48.446;8.834;2023-04-29T02:29:01;97254.44;;;10.05;98.36
72336;BME280;65062;48.446;8.834;2023-04-29T02:32:02;97255.94;;;9.93;97.20
72336;BME280;65062;48.446;8.834;2023-04-29T02:35:02;97250.81;;;9.85;97.59
72336;BME280;65062;48.446;8.834;2023-04-29T02:38:03;97253.78;;;9.82;97.73
72336;BME280;65062;48.446;8.834;2023-04-29T02:41:03;97252.56;;;9.78;97.95
72336;BME280;65062;48.446;8.834;2023-04-29T02:44:03;97251.56;;;9.79;97.88
72336;BME280;65062;48.446;8.834;2023-04-29T02:47:04;97260.34;;;9.72;97.67
72336;BME280;65062;48.446;8.834;2023-04-29T02:50:05;97254.94;;;9.73;97.35
72336;BME280;65062;48.446;8.834;2023-04-29T02:53:05;97247.66;;;9.69;97.78
72336;BME280;65062;48.446;8.834;2023-04-29T02:56:06;97250.44;;;9.67;97.99
72336;BME280;65062;48.446;8.834;2023-04-29T02:59:06;97251.59;;;9.65;98.10
72336;BME280;65062;48.446;8.834;2023-04-29T03:02:07;97249.19;;;9.63;98.38
72336;BME280;65062;48.446;8.834;2023-04-29T03:05:07;97255.03;;;9.65;98.06
72336;BME280;65062;48.446;8.834;2023-04-29T03:08:08;97257.53;;;9.73;98.08
72336;BME280;65062;48.446;8.834;2023-04-29T03:11:09;97263.50;;;9.67;98.26
72336;BME280;65062;48.446;8.834;2023-04-29T03:14:09;97259.63;;;9.63;98.29
72336;BME280;65062;48.446;8.834;2023-04-29T03:17:10;97261.09;;;9.66;98.46
72336;BME280;65062;48.446;8.834;2023-04-29T03:20:11;97258.09;;;9.69;97.96
72336;BME280;65062;48.446;8.834;2023-04-29T03:23:11;97254.41;;;9.63;97.54
72336;BME280;65062;48.446;8.834;2023-04-29T03:26:12;97244.53;;;9.59;97.77
72336;BME280;65062;48.446;8.834;2023-04-29T03:29:12;97248.63;;;9.68;98.06
72336;BME280;65062;48.446;8.834;2023-04-29T03:32:12;97246.56;;;9.63;98.59
72336;BME280;65062;48.446;8.834;2023-04-29T03:35:13;97251.41;;;9.66;97.66
72336;BME280;65062;48.446;8.834;2023-04-29T03:38:13;97241.91;;;9.59;97.33
72336;BME280;65062;48.446;8.834;2023-04-29T03:41:13;97243.06;;;9.56;96.72
72336;BME280;65062;48.446;8.834;2023-04-29T03:44:14;97239.13;;;9.46;97.00
72336;BME280;65062;48.446;8.834;2023-04-29T03:47:14;97244.19;;;9.47;97.14
72336;BME280;65062;48.446;8.834;2023-04-29T03:50:15;97243.03;;;9.50;97.72
72336;BME280;65062;48.446;8.834;2023-04-29T03:53:15;97241.44;;;9.34;97.13
72336;BME280;65062;48.446;8.834;2023-04-29T03:56:16;97236.47;;;9.39;97.33
72336;BME280;65062;48.446;8.834;2023-04-29T03:59:16;97240.50;;;9.42;98.04
72336;BME280;65062;48.446;8.834;2023-04-29T04:02:17;97243.25;;;9.34;97.34
72336;BME280;65062;48.446;8.834;2023-04-29T04:05:17;97239.72;;;9.27;97.44
72336;BME280;65062;48.446;8.834;2023-04-29T04:08:24;97242.88;;;9.37;97.24
72336;BME280;65062;48.446;8.834;2023-04-29T04:11:24;97241.44;;;9.34;97.28
72336;BME280;65062;48.446;8.834;2023-04-29T04:14:24;97239.63;;;9.35;97.18
72336;BME280;65062;48.446;8.834;2023-04-29T04:17:25;97246.59;;;9.28;97.55
72336;BME280;65062;48.446;8.834;2023-04-29T04:20:26;97257.22;;;9.26;97.48
72336;BME280;65062;48.446;8.834;2023-04-29T04:23:26;97260.06;;;9.31;97.73
72336;BME280;65062;48.446;8.834;2023-04-29T04:26:26;97261.81;;;9.24;97.34
72336;BME280;65062;48.446;8.834;2023-04-29T04:29:27;97263.88;;;9.29;97.81
72336;BME280;65062;48.446;8.834;2023-04-29T04:32:27;97265.41;;;9.23;97.81
72336;BME280;65062;48.446;8.834;2023-04-29T04:35:27;97270.47;;;9.25;97.46
72336;BME280;65062;48.446;8.834;2023-04-29T04:38:28;97280.06;;;9.24;97.64
72336;BME280;65062;48.446;8.834;2023-04-29T04:41:28;97274.13;;;9.30;97.25
72336;BME280;65062;48.446;8.834;2023-04-29T04:44:31;97283.94;;;9.28;97.55
72336;BME280;65062;48.446;8.834;2023-04-29T04:47:31;97291.69;;;9.36;96.83
72336;BME280;65062;48.446;8.834;2023-04-29T04:50:32;97283.03;;;9.36;97.99
72336;BME280;65062;48.446;8.834;2023-04-29T04:53:32;97280.22;;;9.37;97.09
72336;BME280;65062;48.446;8.834;2023-04-29T04:56:32;97281.47;;;9.41;96.83
72336;BME280;65062;48.446;8.834;2023-04-29T04:59:33;97288.06;;;9.37;96.90
72336;BME280;65062;48.446;8.834;2023-04-29T05:02:34;97299.84;;;9.48;96.62
72336;BME280;65062;48.446;8.834;2023-04-29T05:05:34;97296.72;;;9.38;96.37
72336;BME280;65062;48.446;8.834;2023-04-29T05:08:34;97305.75;;;9.35;95.63
72336;BME280;65062;48.446;8.834;2023-04-29T05:11:35;97304.00;;;9.42;96.54
72336;BME280;65062;48.446;8.834;2023-04-29T05:14:35;97310.22;;;9.41;96.27
72336;BME280;65062;48.446;8.834;2023-04-29T05:17:35;97310.84;;;9.43;96.26
72336;BME280;65062;48.446;8.834;2023-04-29T05:20:36;97308.16;;;9.51;95.49
72336;BME280;65062;48.446;8.834;2023-04-29T05:23:37;97315.13;;;9.65;95.92
72336;BME280;65062;48.446;8.834;2023-04-29T05:26:37;97322.97;;;9.65;95.39
72336;BME280;65062;48.446;8.834;2023-04-29T05:29:37;97323.88;;;9.58;95.00
72336;BME280;65062;48.446;8.834;2023-04-29T05:32:38;97331.81;;;9.64;94.64
72336;BME280;65062;48.446;8.834;2023-04-29T05:35:38;97333.91;;;9.54;94.76
72336;BME280;65062;48.446;8.834;2023-04-29T05:38:38;97343.06;;;9.65;94.73
72336;BME280;65062;48.446;8.834;2023-04-29T05:41:39;97346.56;;;9.72;94.87
72336;BME280;65062;48.446;8.834;2023-04-29T05:44:39;97353.09;;;9.82;94.95
72336;BME280;65062;48.446;8.834;2023-04-29T05:47:40;97352.88;;;9.77;93.30
72336;BME280;65062;48.446;8.834;2023-04-29T05:50:40;97365.19;;;9.83;93.92
72336;BME280;65062;48.446;8.834;2023-04-29T05:53:41;97373.09;;;9.90;94.21
72336;BME280;65062;48.446;8.834;2023-04-29T05:56:41;97368.78;;;9.97;93.50
72336;BME280;65062;48.446;8.834;2023-04-29T05:59:41;97372.91;;;9.91;92.19
72336;BME280;65062;48.446;8.834;2023-04-29T06:02:42;97381.59;;;9.92;92.46
72336;BME280;65062;48.446;8.834;2023-04-29T06:05:45;97386.63;;;9.93;93.13
72336;BME280;65062;48.446;8.834;2023-04-29T06:08:45;97393.09;;;9.97;92.91
72336;BME280;65062;48.446;8.834;2023-04-29T06:11:46;97394.09;;;10.11;92.77
72336;BME280;65062;48.446;8.834;2023-04-29T06:14:47;97398.78;;;10.15;93.34
72336;BME280;65062;48.446;8.834;2023-04-29T06:17:47;97407.41;;;10.30;93.46
72336;BME280;65062;48.446;8.834;2023-04-29T06:20:47;97406.69;;;10.22;92.40
72336;BME280;65062;48.446;8.834;2023-04-29T06:23:48;97406.88;;;10.20;93.67
72336;BME280;65062;48.446;8.834;2023-04-29T06:26:48;97412.72;;;10.22;94.28
72336;BME280;65062;48.446;8.834;2023-04-29T06:29:48;97428.38;;;10.37;93.79
72336;BME280;65062;48.446;8.834;2023-04-29T06:32:49;97428.59;;;10.56;94.69
72336;BME280;65062;48.446;8.834;2023-04-29T06:35:49;97426.56;;;10.80;94.34
72336;BME280;65062;48.446;8.834;2023-04-29T06:38:49;97422.50;;;10.98;93.79
72336;BME280;65062;48.446;8.834;2023-04-29T06:41:50;97430.47;;;11.11;93.03
72336;BME280;65062;48.446;8.834;2023-04-29T06:44:51;97421.69;;;11.25;92.35
72336;BME280;65062;48.446;8.834;2023-04-29T06:47:51;97427.47;;;11.42;92.36
72336;BME280;65062;48.446;8.834;2023-04-29T06:50:53;97429.22;;;11.62;92.29
72336;BME280;65062;48.446;8.834;2023-04-29T06:53:54;97430.13;;;11.76;92.75
72336;BME280;65062;48.446;8.834;2023-04-29T06:56:55;97433.38;;;11.84;92.02
72336;BME280;65062;48.446;8.834;2023-04-29T06:59:55;97435.09;;;12.05;91.17
72336;BME280;65062;48.446;8.834;2023-04-29T07:02:55;97436.81;;;12.32;91.00
72336;BME280;65062;48.446;8.834;2023-04-29T07:05:56;97436.66;;;12.46;91.70
72336;BME280;65062;48.446;8.834;2023-04-29T07:08:56;97435.66;;;12.60;90.32
72336;BME280;65062;48.446;8.834;2023-04-29T07:11:56;97446.00;;;12.82;89.92
72336;BME280;65062;48.446;8.834;2023-04-29T07:14:57;97438.53;;;12.98;89.73
72336;BME280;65062;48.446;8.834;2023-04-29T07:17:58;97446.06;;;13.01;88.99
72336;BME280;65062;48.446;8.834;2023-04-29T07:21:00;97453.34;;;13.06;87.44
72336;BME280;65062;48.446;8.834;2023-04-29T07:24:01;97454.56;;;13.16;86.56
72336;BME280;65062;48.446;8.834;2023-04-29T07:27:04;97458.19;;;13.22;86.58
72336;BME280;65062;48.446;8.834;2023-04-29T07:30:04;97455.53;;;13.28;86.43
72336;BME280;65062;48.446;8.834;2023-04-29T07:33:05;97465.03;;;13.49;86.00
72336;BME280;65062;48.446;8.834;2023-04-29T07:36:06;97449.63;;;13.65;85.33
72336;BME280;65062;48.446;8.834;2023-04-29T07:39:09;97463.97;;;13.82;84.38
72336;BME280;65062;48.446;8.834;2023-04-29T07:42:11;97465.56;;;13.90;82.13
72336;BME280;65062;48.446;8.834;2023-04-29T07:45:11;97459.47;;;13.96;77.70
72336;BME280;65062;48.446;8.834;2023-04-29T07:48:13;97462.56;;;13.73;75.86
72336;BME280;65062;48.446;8.834;2023-04-29T07:51:14;97460.69;;;14.00;75.92
72336;BME280;65062;48.446;8.834;2023-04-29T07:54:15;97464.72;;;14.02;75.86
72336;BME280;65062;48.446;8.834;2023-04-29T07:57:15;97459.88;;;13.93;73.50
72336;BME280;65062;48.446;8.834;2023-04-29T08:00:16;97470.56;;;14.17;74.06
72336;BME280;65062;48.446;8.834;2023-04-29T08:03:16;97456.75;;;14.22;70.38
72336;BME280;65062;48.446;8.834;2023-04-29T08:06:18;97467.25;;;14.35;72.20
72336;BME280;65062;48.446;8.834;2023-04-29T08:09:21;97469.00;;;14.54;70.73
72336;BME280;65062;48.446;8.834;2023-04-29T08:12:21;97472.44;;;14.86;70.33
72336;BME280;65062;48.446;8.834;2023-04-29T08:15:22;97467.75;;;14.94;70.43
72336;BME280;65062;48.446;8.834;2023-04-29T08:18:22;97473.16;;;14.99;65.86
72336;BME280;65062;48.446;8.834;2023-04-29T08:21:22;97469.44;;;14.82;68.74
72336;BME280;65062;48.446;8.834;2023-04-29T08:24:23;97474.94;;;14.81;68.99
72336;BME280;65062;48.446;8.834;2023-04-29T08:27:24;97475.06;;;14.92;66.18
72336;BME280;65062;48.446;8.834;2023-04-29T08:30:24;97477.34;;;15.13;68.36
72336;BME280;65062;48.446;8.834;2023-04-29T08:33:25;97469.03;;;15.41;66.78
72336;BME280;65062;48.446;8.834;2023-04-29T08:36:26;97469.34;;;15.51;66.27
72336;BME280;65062;48.446;8.834;2023-04-29T08:39:28;97474.22;;;15.72;68.54
72336;BME280;65062;48.446;8.834;2023-04-29T08:42:34;97475.09;;;15.66;65.80
72336;BME280;65062;48.446;8.834;2023-04-29T08:45:35;97476.28;;;15.70;63.66
72336;BME280;65062;48.446;8.834;2023-04-29T08:48:36;97480.69;;;15.76;66.31
72336;BME280;65062;48.446;8.834;2023-04-29T08:51:39;97475.84;;;15.73;63.37
72336;BME280;65062;48.446;8.834;2023-04-29T08:54:39;97459.00;;;15.92;64.14
72336;BME280;65062;48.446;8.834;2023-04-29T08:57:41;97471.53;;;16.14;61.87
72336;BME280;65062;48.446;8.834;2023-04-29T09:00:43;97466.59;;;16.36;61.11
72336;BME280;65062;48.446;8.834;2023-04-29T09:06:56;97459.53;;;16.96;61.28
72336;BME280;65062;48.446;8.834;2023-04-29T09:09:58;97453.53;;;17.00;59.27
72336;BME280;65062;48.446;8.834;2023-04-29T09:12:58;97459.31;;;17.09;59.52
72336;BME280;65062;48.446;8.834;2023-04-29T09:15:58;97460.09;;;17.50;58.46
72336;BME280;65062;48.446;8.834;2023-04-29T09:18:59;97461.41;;;17.30;56.66
72336;BME280;65062;48.446;8.834;2023-04-29T09:22:01;97457.38;;;16.75;55.99
72336;BME280;65062;48.446;8.834;2023-04-29T09:25:12;97461.38;;;16.65;60.12
72336;BME280;65062;48.446;8.834;2023-04-29T09:28:15;97451.28;;;16.44;60.45
72336;BME280;65062;48.446;8.834;2023-04-29T09:31:26;97454.47;;;16.64;59.53
72336;BME280;65062;48.446;8.834;2023-04-29T09:34:31;97459.75;;;16.94;57.98
72336;BME280;65062;48.446;8.834;2023-04-29T09:37:32;97456.72;;;17.32;58.60
72336;BME280;65062;48.446;8.834;2023-04-29T09:40:33;97456.94;;;17.19;57.27
72336;BME280;65062;48.446;8.834;2023-04-29T09:43:33;97462.44;;;17.06;58.63
72336;BME280;65062;48.446;8.834;2023-04-29T09:46:35;97463.25;;;17.18;58.54
72336;BME280;65062;48.446;8.834;2023-04-29T09:49:39;97474.06;;;17.16;56.92
72336;BME280;65062;48.446;8.834;2023-04-29T09:52:41;97460.63;;;17.18;57.07
72336;BME280;65062;48.446;8.834;2023-04-29T09:56:01;97465.28;;;17.68;57.43
72336;BME280;65062;48.446;8.834;2023-04-29T09:59:07;97455.50;;;17.57;56.36
72336;BME280;65062;48.446;8.834;2023-04-29T10:02:16;97459.97;;;17.68;54.77
72336;BME280;65062;48.446;8.834;2023-04-29T10:05:20;97452.59;;;17.47;55.18
72336;BME280;65062;48.446;8.834;2023-04-29T10:08:21;97453.00;;;17.21;56.13
72336;BME280;65062;48.446;8.834;2023-04-29T10:11:21;97455.94;;;17.02;55.38
72336;BME280;65062;48.446;8.834;2023-04-29T10:14:23;97457.41;;;16.86;58.20
72336;BME280;65062;48.446;8.834;2023-04-29T10:17:45;97467.09;;;16.92;57.71
72336;BME280;65062;48.446;8.834;2023-04-29T10:20:47;97457.59;;;17.14;56.65
72336;BME280;65062;48.446;8.834;2023-04-29T10:23:48;97462.47;;;17.40;59.12
72336;BME280;65062;48.446;8.834;2023-04-29T10:26:49;97456.63;;;17.38;55.26
72336;BME280;65062;48.446;8.834;2023-04-29T10:29:51;97458.44;;;17.26;54.23
72336;BME280;65062;48.446;8.834;2023-04-29T10:32:53;97455.22;;;17.36;54.63
72336;BME280;65062;48.446;8.834;2023-04-29T10:35:57;97455.13;;;17.31;55.24
72336;BME280;65062;48.446;8.834;2023-04-29T10:38:59;97445.94;;;17.45;54.22
72336;BME280;65062;48.446;8.834;2023-04-29T10:42:04;97442.66;;;18.23;52.22
72336;BME280;65062;48.446;8.834;2023-04-29T10:45:29;97446.19;;;18.40;50.16
72336;BME280;65062;48.446;8.834;2023-04-29T10:48:35;97447.47;;;18.66;53.20
72336;BME280;65062;48.446;8.834;2023-04-29T10:51:41;97451.22;;;18.53;51.96
72336;BME280;65062;48.446;8.834;2023-04-29T10:55:00;97441.22;;;18.44;51.60
72336;BME280;65062;48.446;8.834;2023-04-29T10:58:02;97439.84;;;18.30;48.87
72336;BME280;65062;48.446;8.834;2023-04-29T11:01:04;97440.22;;;18.22;50.30
72336;BME280;65062;48.446;8.834;2023-04-29T11:04:04;97433.25;;;18.32;51.33
72336;BME280;65062;48.446;8.834;2023-04-29T11:07:04;97431.78;;;19.09;52.80
72336;BME280;65062;48.446;8.834;2023-04-29T11:10:06;97432.38;;;19.61;47.84
72336;BME280;65062;48.446;8.834;2023-04-29T11:13:27;97427.59;;;20.39;48.66
72336;BME280;65062;48.446;8.834;2023-04-29T11:16:28;97425.91;;;20.33;47.52
72336;BME280;65062;48.446;8.834;2023-04-29T11:19:35;97430.38;;;20.27;45.47
72336;BME280;65062;48.446;8.834;2023-04-29T11:22:35;97424.53;;;20.79;45.24
72336;BME280;65062;48.446;8.834;2023-04-29T11:25:38;97423.97;;;20.98;45.23
72336;BME280;65062;48.446;8.834;2023-04-29T11:28:40;97421.13;;;21.10;44.22
72336;BME280;65062;48.446;8.834;2023-04-29T11:31:41;97421.97;;;21.47;45.52
72336;BME280;65062;48.446;8.834;2023-04-29T11:34:42;97420.78;;;21.33;45.68
72336;BME280;65062;48.446;8.834;2023-04-29T11:37:44;97429.38;;;20.82;45.28
72336;BME280;65062;48.446;8.834;2023-04-29T11:40:47;97424.63;;;22.45;41.20
72336;BME280;65062;48.446;8.834;2023-04-29T11:43:55;97426.09;;;24.03;38.40
72336;BME280;65062;48.446;8.834;2023-04-29T11:47:06;97429.03;;;23.96;36.91
72336;BME280;65062;48.446;8.834;2023-04-29T11:50:07;97423.47;;;23.18;36.94
72336;BME280;65062;48.446;8.834;2023-04-29T11:53:09;97431.38;;;22.52;39.99
72336;BME280;65062;48.446;8.834;2023-04-29T11:56:10;97433.56;;;22.14;40.27
72336;BME280;65062;48.446;8.834;2023-04-29T11:59:10;97437.78;;;22.05;38.80
72336;BME280;65062;48.446;8.834;2023-04-29T12:02:11;97436.81;;;23.23;39.78
72336;BME280;65062;48.446;8.834;2023-04-29T12:05:12;97439.22;;;23.04;40.18
72336;BME280;65062;48.446;8.834;2023-04-29T12:08:18;97442.69;;;23.00;39.73
72336;BME280;65062;48.446;8.834;2023-04-29T12:11:19;97443.22;;;21.73;40.53
72336;BME280;65062;48.446;8.834;2023-04-29T12:14:20;97443.28;;;22.40;41.62
72336;BME280;65062;48.446;8.834;2023-04-29T12:17:20;97434.72;;;25.69;36.48
72336;BME280;65062;48.446;8.834;2023-04-29T12:20:21;97426.84;;;28.73;31.14
72336;BME280;65062;48.446;8.834;2023-04-29T12:23:23;97425.28;;;30.61;27.00
72336;BME280;65062;48.446;8.834;2023-04-29T12:26:31;97427.94;;;31.42;22.17
72336;BME280;65062;48.446;8.834;2023-04-29T12:29:32;97430.28;;;31.27;23.77
72336;BME280;65062;48.446;8.834;2023-04-29T12:32:33;97422.13;;;30.59;24.44
72336;BME280;65062;48.446;8.834;2023-04-29T12:35:33;97433.63;;;27.89;29.44
72336;BME280;65062;48.446;8.834;2023-04-29T12:38:34;97427.41;;;26.27;32.34
72336;BME280;65062;48.446;8.834;2023-04-29T12:41:37;97435.06;;;24.91;34.36
72336;BME280;65062;48.446;8.834;2023-04-29T12:44:37;97440.91;;;24.44;34.20
72336;BME280;65062;48.446;8.834;2023-04-29T12:47:38;97442.44;;;24.60;35.09
72336;BME280;65062;48.446;8.834;2023-04-29T12:50:38;97441.47;;;25.33;35.46
72336;BME280;65062;48.446;8.834;2023-04-29T12:53:39;97437.94;;;25.95;34.21
72336;BME280;65062;48.446;8.834;2023-04-29T12:56:39;97438.84;;;28.26;30.41
72336;BME280;65062;48.446;8.834;2023-04-29T12:59:41;97441.56;;;30.30;26.43
72336;BME280;65062;48.446;8.834;2023-04-29T13:02:42;97446.50;;;29.09;28.12
72336;BME280;65062;48.446;8.834;2023-04-29T13:05:42;97454.50;;;27.79;26.77
72336;BME280;65062;48.446;8.834;2023-04-29T13:08:43;97454.72;;;27.50;28.37
72336;BME280;65062;48.446;8.834;2023-04-29T13:11:43;97452.50;;;26.60;32.28
72336;BME280;65062;48.446;8.834;2023-04-29T13:14:44;97453.00;;;26.85;30.54
72336;BME280;65062;48.446;8.834;2023-04-29T13:17:44;97456.00;;;27.85;27.72
72336;BME280;65062;48.446;8.834;2023-04-29T13:20:45;97456.94;;;26.03;31.77
72336;BME280;65062;48.446;8.834;2023-04-29T13:23:45;97453.81;;;25.91;32.51
72336;BME280;65062;48.446;8.834;2023-04-29T13:26:47;97454.47;;;25.78;32.45
72336;BME280;65062;48.446;8.834;2023-04-29T13:29:49;97460.41;;;25.03;33.27
72336;BME280;65062;48.446;8.834;2023-04-29T13:32:49;97470.00;;;25.09;33.17
72336;BME280;65062;48.446;8.834;2023-04-29T13:35:49;97462.53;;;26.30;30.58
72336;BME280;65062;48.446;8.834;2023-04-29T13:38:50;97464.94;;;26.08;29.85
72336;BME280;65062;48.446;8.834;2023-04-29T13:41:50;97461.25;;;25.71;32.43
72336;BME280;65062;48.446;8.834;2023-04-29T13:44:51;97469.63;;;25.26;33.71
72336;BME280;65062;48.446;8.834;2023-04-29T13:47:52;97465.69;;;26.80;30.12
72336;BME280;65062;48.446;8.834;2023-04-29T13:50:52;97467.16;;;25.96;30.29
72336;BME280;65062;48.446;8.834;2023-04-29T13:53:53;97473.50;;;25.10;32.92
72336;BME280;65062;48.446;8.834;2023-04-29T13:56:53;97475.94;;;24.47;34.69
72336;BME280;65062;48.446;8.834;2023-04-29T13:59:54;97467.78;;;25.26;33.58
72336;BME280;65062;48.446;8.834;2023-04-29T14:02:54;97470.81;;;25.15;31.74
72336;BME280;65062;48.446;8.834;2023-04-29T14:05:55;97473.75;;;25.52;32.20
72336;BME280;65062;48.446;8.834;2023-04-29T14:08:55;97485.06;;;28.01;27.59
72336;BME280;65062;48.446;8.834;2023-04-29T14:11:55;97471.09;;;29.52;25.18
72336;BME280;65062;48.446;8.834;2023-04-29T14:14:56;97472.97;;;29.43;26.04
72336;BME280;65062;48.446;8.834;2023-04-29T14:17:56;97474.22;;;28.74;27.07
72336;BME280;65062;48.446;8.834;2023-04-29T14:20:57;97475.13;;;28.29;26.09
72336;BME280;65062;48.446;8.834;2023-04-29T14:23:59;97482.91;;;27.53;27.52
72336;BME280;65062;48.446;8.834;2023-04-29T14:27:01;97476.69;;;25.50;29.56
72336;BME280;65062;48.446;8.834;2023-04-29T14:30:02;97487.41;;;25.55;30.68
72336;BME280;65062;48.446;8.834;2023-04-29T14:33:03;97478.19;;;27.77;28.04
72336;BME280;65062;48.446;8.834;2023-04-29T14:36:04;97482.19;;;29.28;24.52
72336;BME280;65062;48.446;8.834;2023-04-29T14:39:05;97483.28;;;28.24;25.10
72336;BME280;65062;48.446;8.834;2023-04-29T14:42:05;97490.66;;;29.13;24.85
72336;BME280;65062;48.446;8.834;2023-04-29T14:45:06;97490.47;;;28.42;24.46
72336;BME280;65062;48.446;8.834;2023-04-29T14:48:07;97504.78;;;28.56;27.62
72336;BME280;65062;48.446;8.834;2023-04-29T14:51:08;97504.19;;;30.32;24.06
72336;BME280;65062;48.446;8.834;2023-04-29T14:54:09;97510.94;;;29.33;23.74
72336;BME280;65062;48.446;8.834;2023-04-29T14:57:10;97501.22;;;29.10;25.83
72336;BME280;65062;48.446;8.834;2023-04-29T15:00:11;97511.00;;;28.24;25.56
72336;BME280;65062;48.446;8.834;2023-04-29T15:03:12;97506.16;;;26.17;27.50
72336;BME280;65062;48.446;8.834;2023-04-29T15:06:12;97511.69;;;25.25;31.74
72336;BME280;65062;48.446;8.834;2023-04-29T15:09:13;97521.56;;;22.66;33.85
72336;BME280;65062;48.446;8.834;2023-04-29T15:12:13;97525.00;;;21.41;39.33
72336;BME280;65062;48.446;8.834;2023-04-29T15:15:15;97524.22;;;20.71;41.24
72336;BME280;65062;48.446;8.834;2023-04-29T15:18:16;97522.28;;;20.07;43.79
72336;BME280;65062;48.446;8.834;2023-04-29T15:21:17;97528.53;;;21.25;43.44
72336;BME280;65062;48.446;8.834;2023-04-29T15:24:18;97534.06;;;21.45;43.02
72336;BME280;65062;48.446;8.834;2023-04-29T15:27:18;97540.00;;;21.52;42.21
72336;BME280;65062;48.446;8.834;2023-04-29T15:30:19;97542.13;;;21.82;41.68
72336;BME280;65062;48.446;8.834;2023-04-29T15:33:19;97539.56;;;21.34;42.53
72336;BME280;65062;48.446;8.834;2023-04-29T15:36:26;97539.06;;;20.67;43.42
72336;BME280;65062;48.446;8.834;2023-04-29T15:39:28;97545.16;;;20.46;44.68
72336;BME280;65062;48.446;8.834;2023-04-29T15:42:28;97540.28;;;20.38;44.51
72336;BME280;65062;48.446;8.834;2023-04-29T15:45:29;97551.88;;;20.48;44.06
72336;BME280;65062;48.446;8.834;2023-04-29T15:48:30;97548.56;;;19.70;46.71
72336;BME280;65062;48.446;8.834;2023-04-29T15:51:30;97555.81;;;20.89;42.62
72336;BME280;65062;48.446;8.834;2023-04-29T15:54:30;97564.75;;;21.79;40.60
72336;BME280;65062;48.446;8.834;2023-04-29T15:57:31;97559.59;;;22.93;40.00
72336;BME280;65062;48.446;8.834;2023-04-29T16:00:31;97571.47;;;23.42;37.90
72336;BME280;65062;48.446;8.834;2023-04-29T16:03:31;97565.66;;;24.10;36.08
72336;BME280;65062;48.446;8.834;2023-04-29T16:06:32;97562.69;;;24.36;35.66
72336;BME280;65062;48.446;8.834;2023-04-29T16:09:33;97568.66;;;24.97;35.53
72336;BME280;65062;48.446;8.834;2023-04-29T16:12:34;97569.41;;;24.04;36.06
72336;BME280;65062;48.446;8.834;2023-04-29T16:15:35;97563.53;;;22.80;39.13